Terminal Aerodrome Forecast
Issued by NWS

Home | Current Version | Previous Version | Graphics & Text | Print | Product List | Glossary On
Versions: 1 2 3 4 5 6 7 8 9 10 11 12 13 14 15 16 17
596
FTUS43 KABR 191120
TAFATY
TAF
KATY 191120Z 1912/2012 17007KT P6SM FEW250 WS020/21030KT
     FM191600 19014G21KT P6SM FEW250
     FM200100 18011KT P6SM SKC WS015/20045KT=

USA.gov is the U.S. government's official web portal to all federal, state and local government web resources and services.